sensor_id;sensor_type;location;lat;lon;timestamp;temperature;humidity
6377;DHT22;3221;48.858;10.128;2023-03-01T00:01:24;-0.90;99.90
6377;DHT22;3221;48.858;10.128;2023-03-01T00:03:52;-0.90;99.90
6377;DHT22;3221;48.858;10.128;2023-03-01T00:06:20;-0.90;99.90
6377;DHT22;3221;48.858;10.128;2023-03-01T00:08:47;-1.00;99.90
6377;DHT22;3221;48.858;10.128;2023-03-01T00:11:17;-1.00;99.90
6377;DHT22;3221;48.858;10.128;2023-03-01T00:13:46;-1.00;99.90
6377;DHT22;3221;48.858;10.128;2023-03-01T00:16:19;-1.00;99.90
6377;DHT22;3221;48.858;10.128;2023-03-01T00:18:49;-1.00;99.90
6377;DHT22;3221;48.858;10.128;2023-03-01T00:21:17;-1.00;99.90
6377;DHT22;3221;48.858;10.128;2023-03-01T00:23:44;-1.00;99.90
6377;DHT22;3221;48.858;10.128;2023-03-01T00:26:13;-1.00;99.90
6377;DHT22;3221;48.858;10.128;2023-03-01T00:28:41;-1.00;99.90
6377;DHT22;3221;48.858;10.128;2023-03-01T00:31:11;-1.10;99.90
6377;DHT22;3221;48.858;10.128;2023-03-01T00:33:39;-1.10;99.90
6377;DHT22;3221;48.858;10.128;2023-03-01T00:36:06;-1.00;99.90
6377;DHT22;3221;48.858;10.128;2023-03-01T00:38:41;-0.90;99.90
6377;DHT22;3221;48.858;10.128;2023-03-01T00:41:10;-0.80;99.90
6377;DHT22;3221;48.858;10.128;2023-03-01T00:43:38;-0.90;99.90
6377;DHT22;3221;48.858;10.128;2023-03-01T00:46:07;-0.90;99.90
6377;DHT22;3221;48.858;10.128;2023-03-01T00:48:35;-0.80;99.90
6377;DHT22;3221;48.858;10.128;2023-03-01T00:51:17;-0.90;99.90
6377;DHT22;3221;48.858;10.128;2023-03-01T00:53:45;-0.90;99.90
6377;DHT22;3221;48.858;10.128;2023-03-01T00:56:14;-0.80;99.90
6377;DHT22;3221;48.858;10.128;2023-03-01T00:58:43;-0.90;99.90
6377;DHT22;3221;48.858;10.128;2023-03-01T01:01:21;-1.00;99.90
6377;DHT22;3221;48.858;10.128;2023-03-01T01:04:09;-1.00;99.90
6377;DHT22;3221;48.858;10.128;2023-03-01T01:06:44;-1.10;99.90
6377;DHT22;3221;48.858;10.128;2023-03-01T01:09:14;-0.90;99.90
6377;DHT22;3221;48.858;10.128;2023-03-01T01:11:49;-0.80;99.90
6377;DHT22;3221;48.858;10.128;2023-03-01T01:14:17;-0.80;99.90
6377;DHT22;3221;48.858;10.128;2023-03-01T01:16:44;-0.80;99.90
6377;DHT22;3221;48.858;10.128;2023-03-01T01:19:12;-0.80;99.90
6377;DHT22;3221;48.858;10.128;2023-03-01T01:21:40;-0.80;99.90
6377;DHT22;3221;48.858;10.128;2023-03-01T01:24:10;-0.70;99.90
6377;DHT22;3221;48.858;10.128;2023-03-01T01:26:37;-0.70;99.90
6377;DHT22;3221;48.858;10.128;2023-03-01T01:29:04;-0.70;99.90
6377;DHT22;3221;48.858;10.128;2023-03-01T01:31:32;-0.70;99.90
6377;DHT22;3221;48.858;10.128;2023-03-01T01:34:01;-0.70;99.90
6377;DHT22;3221;48.858;10.128;2023-03-01T01:36:28;-0.70;99.90
6377;DHT22;3221;48.858;10.128;2023-03-01T01:38:55;-0.70;99.90
6377;DHT22;3221;48.858;10.128;2023-03-01T01:41:24;-0.70;99.90
6377;DHT22;3221;48.858;10.128;2023-03-01T01:49:17;-0.80;99.90
6377;DHT22;3221;48.858;10.128;2023-03-01T01:51:48;-0.80;99.90
6377;DHT22;3221;48.858;10.128;2023-03-01T01:54:27;-0.80;99.90
6377;DHT22;3221;48.858;10.128;2023-03-01T01:56:58;-0.90;99.90
6377;DHT22;3221;48.858;10.128;2023-03-01T01:59:28;-1.00;99.90
6377;DHT22;3221;48.858;10.128;2023-03-01T02:01:59;-0.90;99.90
6377;DHT22;3221;48.858;10.128;2023-03-01T02:04:28;-1.00;99.90
6377;DHT22;3221;48.858;10.128;2023-03-01T02:07:02;-0.90;99.90
6377;DHT22;3221;48.858;10.128;2023-03-01T02:09:32;-1.00;99.90
6377;DHT22;3221;48.858;10.128;2023-03-01T02:12:01;-0.90;99.90
6377;DHT22;3221;48.858;10.128;2023-03-01T02:14:28;-0.90;99.90
6377;DHT22;3221;48.858;10.128;2023-03-01T02:16:55;-0.90;99.90
6377;DHT22;3221;48.858;10.128;2023-03-01T02:22:35;-1.00;99.90
6377;DHT22;3221;48.858;10.128;2023-03-01T02:27:58;-1.10;99.90
6377;DHT22;3221;48.858;10.128;2023-03-01T02:30:31;-1.10;99.90
6377;DHT22;3221;48.858;10.128;2023-03-01T02:33:00;-1.00;99.90
6377;DHT22;3221;48.858;10.128;2023-03-01T02:35:35;-1.10;99.90
6377;DHT22;3221;48.858;10.128;2023-03-01T02:38:06;-1.20;99.90
6377;DHT22;3221;48.858;10.128;2023-03-01T02:40:35;-1.20;99.90
6377;DHT22;3221;48.858;10.128;2023-03-01T02:43:06;-1.10;99.90
6377;DHT22;3221;48.858;10.128;2023-03-01T02:45:35;-1.20;99.90
6377;DHT22;3221;48.858;10.128;2023-03-01T02:48:02;-1.20;99.90
6377;DHT22;3221;48.858;10.128;2023-03-01T02:55:28;-1.10;99.90
6377;DHT22;3221;48.858;10.128;2023-03-01T02:57:56;-1.10;99.90
6377;DHT22;3221;48.858;10.128;2023-03-01T03:00:28;-1.10;99.90
6377;DHT22;3221;48.858;10.128;2023-03-01T03:02:56;-1.00;99.90
6377;DHT22;3221;48.858;10.128;2023-03-01T03:05:27;-1.00;99.90
6377;DHT22;3221;48.858;10.128;2023-03-01T03:07:57;-1.00;99.90
6377;DHT22;3221;48.858;10.128;2023-03-01T03:10:31;-0.90;99.90
6377;DHT22;3221;48.858;10.128;2023-03-01T03:13:01;-1.00;99.90
6377;DHT22;3221;48.858;10.128;2023-03-01T03:15:29;-1.00;99.90
6377;DHT22;3221;48.858;10.128;2023-03-01T03:17:58;-1.10;99.90
6377;DHT22;3221;48.858;10.128;2023-03-01T03:20:27;-1.10;99.90
6377;DHT22;3221;48.858;10.128;2023-03-01T03:22:55;-1.20;99.90
6377;DHT22;3221;48.858;10.128;2023-03-01T03:25:23;-1.30;99.90
6377;DHT22;3221;48.858;10.128;2023-03-01T03:27:52;-1.30;99.90
6377;DHT22;3221;48.858;10.128;2023-03-01T03:30:28;-1.30;99.90
6377;DHT22;3221;48.858;10.128;2023-03-01T03:32:56;-1.20;99.90
6377;DHT22;3221;48.858;10.128;2023-03-01T03:35:32;-1.30;99.90
6377;DHT22;3221;48.858;10.128;2023-03-01T03:38:01;-1.20;99.90
6377;DHT22;3221;48.858;10.128;2023-03-01T03:40:37;-1.30;99.90
6377;DHT22;3221;48.858;10.128;2023-03-01T03:43:09;-1.30;99.90
6377;DHT22;3221;48.858;10.128;2023-03-01T03:45:36;-1.40;99.90
6377;DHT22;3221;48.858;10.128;2023-03-01T03:48:05;-1.40;99.90
6377;DHT22;3221;48.858;10.128;2023-03-01T03:50:32;-1.30;99.90
6377;DHT22;3221;48.858;10.128;2023-03-01T03:53:04;-1.30;99.90
6377;DHT22;3221;48.858;10.128;2023-03-01T03:55:32;-1.40;99.90
6377;DHT22;3221;48.858;10.128;2023-03-01T03:58:01;-1.20;99.90
6377;DHT22;3221;48.858;10.128;2023-03-01T04:00:37;-1.20;99.90
6377;DHT22;3221;48.858;10.128;2023-03-01T04:03:04;-1.30;99.90
6377;DHT22;3221;48.858;10.128;2023-03-01T04:05:31;-1.40;99.90
6377;DHT22;3221;48.858;10.128;2023-03-01T04:07:58;-1.40;99.90
6377;DHT22;3221;48.858;10.128;2023-03-01T04:10:39;-1.40;99.90
6377;DHT22;3221;48.858;10.128;2023-03-01T04:13:09;-1.40;99.90
6377;DHT22;3221;48.858;10.128;2023-03-01T04:15:36;-1.50;99.90
6377;DHT22;3221;48.858;10.128;2023-03-01T04:18:03;-1.60;99.90
6377;DHT22;3221;48.858;10.128;2023-03-01T04:20:33;-1.60;99.90
6377;DHT22;3221;48.858;10.128;2023-03-01T04:23:13;-1.50;99.90
6377;DHT22;3221;48.858;10.128;2023-03-01T04:25:53;-1.50;99.90
6377;DHT22;3221;48.858;10.128;2023-03-01T04:28:22;-1.50;99.90
6377;DHT22;3221;48.858;10.128;2023-03-01T04:30:54;-1.60;99.90
6377;DHT22;3221;48.858;10.128;2023-03-01T04:33:22;-1.60;99.90
6377;DHT22;3221;48.858;10.128;2023-03-01T04:35:49;-1.60;99.90
6377;DHT22;3221;48.858;10.128;2023-03-01T04:38:18;-1.60;99.90
6377;DHT22;3221;48.858;10.128;2023-03-01T04:40:45;-1.60;99.90
6377;DHT22;3221;48.858;10.128;2023-03-01T04:43:13;-1.60;99.90
6377;DHT22;3221;48.858;10.128;2023-03-01T04:45:41;-1.60;99.90
6377;DHT22;3221;48.858;10.128;2023-03-01T04:48:08;-1.60;99.90
6377;DHT22;3221;48.858;10.128;2023-03-01T04:50:35;-1.70;99.90
6377;DHT22;3221;48.858;10.128;2023-03-01T04:53:02;-1.60;99.90
6377;DHT22;3221;48.858;10.128;2023-03-01T04:55:29;-1.50;99.90
6377;DHT22;3221;48.858;10.128;2023-03-01T04:57:56;-1.40;99.90
6377;DHT22;3221;48.858;10.128;2023-03-01T05:00:23;-1.50;99.90
6377;DHT22;3221;48.858;10.128;2023-03-01T05:02:53;-1.40;99.90
6377;DHT22;3221;48.858;10.128;2023-03-01T05:08:00;-1.30;99.90
6377;DHT22;3221;48.858;10.128;2023-03-01T05:10:29;-1.30;99.90
6377;DHT22;3221;48.858;10.128;2023-03-01T05:12:57;-1.40;99.90
6377;DHT22;3221;48.858;10.128;2023-03-01T05:15:26;-1.40;99.90
6377;DHT22;3221;48.858;10.128;2023-03-01T05:17:55;-1.50;99.90
6377;DHT22;3221;48.858;10.128;2023-03-01T05:20:27;-1.50;99.90
6377;DHT22;3221;48.858;10.128;2023-03-01T05:22:57;-1.60;99.90
6377;DHT22;3221;48.858;10.128;2023-03-01T05:25:26;-1.60;99.90
6377;DHT22;3221;48.858;10.128;2023-03-01T05:27:53;-1.60;99.90
6377;DHT22;3221;48.858;10.128;2023-03-01T05:30:19;-1.60;99.90
6377;DHT22;3221;48.858;10.128;2023-03-01T05:32:49;-1.60;99.90
6377;DHT22;3221;48.858;10.128;2023-03-01T05:35:17;-1.60;99.90
6377;DHT22;3221;48.858;10.128;2023-03-01T05:37:46;-1.70;99.90
6377;DHT22;3221;48.858;10.128;2023-03-01T05:40:19;-1.60;99.90
6377;DHT22;3221;48.858;10.128;2023-03-01T05:42:54;-1.60;99.90
6377;DHT22;3221;48.858;10.128;2023-03-01T05:45:23;-1.60;99.90
6377;DHT22;3221;48.858;10.128;2023-03-01T05:47:51;-1.60;99.90
6377;DHT22;3221;48.858;10.128;2023-03-01T05:50:20;-1.60;99.90
6377;DHT22;3221;48.858;10.128;2023-03-01T05:52:54;-1.60;99.90
6377;DHT22;3221;48.858;10.128;2023-03-01T05:55:23;-1.60;99.90
6377;DHT22;3221;48.858;10.128;2023-03-01T05:57:50;-1.60;99.90
6377;DHT22;3221;48.858;10.128;2023-03-01T06:00:19;-1.60;99.90
6377;DHT22;3221;48.858;10.128;2023-03-01T06:02:48;-1.70;99.90
6377;DHT22;3221;48.858;10.128;2023-03-01T06:05:15;-1.70;99.90
6377;DHT22;3221;48.858;10.128;2023-03-01T06:07:42;-1.60;99.90
6377;DHT22;3221;48.858;10.128;2023-03-01T06:10:10;-1.70;99.90
6377;DHT22;3221;48.858;10.128;2023-03-01T06:12:39;-1.70;99.90
6377;DHT22;3221;48.858;10.128;2023-03-01T06:15:07;-1.70;99.90
6377;DHT22;3221;48.858;10.128;2023-03-01T06:17:40;-1.80;99.90
6377;DHT22;3221;48.858;10.128;2023-03-01T06:20:10;-1.90;99.90
6377;DHT22;3221;48.858;10.128;2023-03-01T06:22:38;-1.90;99.90
6377;DHT22;3221;48.858;10.128;2023-03-01T06:25:05;-1.80;99.90
6377;DHT22;3221;48.858;10.128;2023-03-01T06:27:32;-1.80;99.90
6377;DHT22;3221;48.858;10.128;2023-03-01T06:29:59;-1.90;99.90
6377;DHT22;3221;48.858;10.128;2023-03-01T06:32:26;-1.80;99.90
6377;DHT22;3221;48.858;10.128;2023-03-01T06:34:53;-1.80;99.90
6377;DHT22;3221;48.858;10.128;2023-03-01T06:37:20;-1.80;99.90
6377;DHT22;3221;48.858;10.128;2023-03-01T06:39:46;-1.80;99.90
6377;DHT22;3221;48.858;10.128;2023-03-01T06:42:13;-1.60;99.90
6377;DHT22;3221;48.858;10.128;2023-03-01T06:44:40;-1.70;99.90
6377;DHT22;3221;48.858;10.128;2023-03-01T06:47:07;-1.60;99.90
6377;DHT22;3221;48.858;10.128;2023-03-01T06:49:33;-1.70;99.90
6377;DHT22;3221;48.858;10.128;2023-03-01T06:52:00;-1.70;99.90
6377;DHT22;3221;48.858;10.128;2023-03-01T06:54:27;-1.70;99.90
6377;DHT22;3221;48.858;10.128;2023-03-01T06:56:54;-1.70;99.90
6377;DHT22;3221;48.858;10.128;2023-03-01T06:59:21;-1.70;99.90
6377;DHT22;3221;48.858;10.128;2023-03-01T07:01:47;-1.70;99.90
6377;DHT22;3221;48.858;10.128;2023-03-01T07:04:14;-1.70;99.90
6377;DHT22;3221;48.858;10.128;2023-03-01T07:06:41;-1.70;99.90
6377;DHT22;3221;48.858;10.128;2023-03-01T07:09:08;-1.70;99.90
6377;DHT22;3221;48.858;10.128;2023-03-01T07:11:35;-1.70;99.90
6377;DHT22;3221;48.858;10.128;2023-03-01T07:14:01;-1.80;99.90
6377;DHT22;3221;48.858;10.128;2023-03-01T07:16:28;-1.80;99.90
6377;DHT22;3221;48.858;10.128;2023-03-01T07:18:55;-1.80;99.90
6377;DHT22;3221;48.858;10.128;2023-03-01T07:21:25;-1.70;99.90
6377;DHT22;3221;48.858;10.128;2023-03-01T07:23:51;-1.50;99.90
6377;DHT22;3221;48.858;10.128;2023-03-01T07:26:18;-1.50;99.90
6377;DHT22;3221;48.858;10.128;2023-03-01T07:28:45;-1.50;99.90
6377;DHT22;3221;48.858;10.128;2023-03-01T07:31:12;-1.40;99.90
6377;DHT22;3221;48.858;10.128;2023-03-01T07:33:39;-1.30;99.90
6377;DHT22;3221;48.858;10.128;2023-03-01T07:36:06;-1.40;99.90
6377;DHT22;3221;48.858;10.128;2023-03-01T07:38:33;-1.20;99.90
6377;DHT22;3221;48.858;10.128;2023-03-01T07:41:02;-1.10;99.90
6377;DHT22;3221;48.858;10.128;2023-03-01T07:43:30;-1.00;99.90
6377;DHT22;3221;48.858;10.128;2023-03-01T07:46:01;-1.00;99.90
6377;DHT22;3221;48.858;10.128;2023-03-01T07:48:29;-1.00;99.90
6377;DHT22;3221;48.858;10.128;2023-03-01T07:51:00;-0.90;99.90
6377;DHT22;3221;48.858;10.128;2023-03-01T07:53:27;-0.90;99.90
6377;DHT22;3221;48.858;10.128;2023-03-01T07:56:05;-0.80;99.90
6377;DHT22;3221;48.858;10.128;2023-03-01T07:58:40;-0.70;99.90
6377;DHT22;3221;48.858;10.128;2023-03-01T08:01:11;-0.60;99.90
6377;DHT22;3221;48.858;10.128;2023-03-01T08:03:38;-0.70;99.90
6377;DHT22;3221;48.858;10.128;2023-03-01T08:06:07;-0.60;99.90
6377;DHT22;3221;48.858;10.128;2023-03-01T08:08:35;-0.40;99.90
6377;DHT22;3221;48.858;10.128;2023-03-01T08:11:04;-0.30;99.90
6377;DHT22;3221;48.858;10.128;2023-03-01T08:13:31;-0.20;99.90
6377;DHT22;3221;48.858;10.128;2023-03-01T08:16:03;-0.20;99.90
6377;DHT22;3221;48.858;10.128;2023-03-01T08:18:31;-0.10;99.90
6377;DHT22;3221;48.858;10.128;2023-03-01T08:21:06;0.00;99.90
6377;DHT22;3221;48.858;10.128;2023-03-01T08:23:33;0.00;99.90
6377;DHT22;3221;48.858;10.128;2023-03-01T08:26:15;0.10;99.90
6377;DHT22;3221;48.858;10.128;2023-03-01T08:28:43;0.20;99.90
6377;DHT22;3221;48.858;10.128;2023-03-01T08:31:26;0.10;99.90
6377;DHT22;3221;48.858;10.128;2023-03-01T08:33:56;0.20;99.90
6377;DHT22;3221;48.858;10.128;2023-03-01T08:36:25;0.30;99.90
6377;DHT22;3221;48.858;10.128;2023-03-01T08:38:53;0.30;99.90
6377;DHT22;3221;48.858;10.128;2023-03-01T08:41:20;0.40;99.90
6377;DHT22;3221;48.858;10.128;2023-03-01T08:43:47;0.50;99.90
6377;DHT22;3221;48.858;10.128;2023-03-01T08:46:14;0.60;99.90
6377;DHT22;3221;48.858;10.128;2023-03-01T08:48:41;0.60;99.90
6377;DHT22;3221;48.858;10.128;2023-03-01T08:51:15;0.70;99.90
6377;DHT22;3221;48.858;10.128;2023-03-01T08:53:43;0.90;99.90
6377;DHT22;3221;48.858;10.128;2023-03-01T08:56:10;0.90;99.90
6377;DHT22;3221;48.858;10.128;2023-03-01T08:58:37;1.00;99.90
6377;DHT22;3221;48.858;10.128;2023-03-01T09:01:10;1.20;99.90
6377;DHT22;3221;48.858;10.128;2023-03-01T09:03:37;1.30;99.90
6377;DHT22;3221;48.858;10.128;2023-03-01T09:06:05;1.30;99.90
6377;DHT22;3221;48.858;10.128;2023-03-01T09:08:42;1.40;99.90
6377;DHT22;3221;48.858;10.128;2023-03-01T09:11:11;1.40;99.90
6377;DHT22;3221;48.858;10.128;2023-03-01T09:13:38;1.50;99.90
6377;DHT22;3221;48.858;10.128;2023-03-01T09:16:08;1.40;99.90
6377;DHT22;3221;48.858;10.128;2023-03-01T09:18:35;1.40;99.90
6377;DHT22;3221;48.858;10.128;2023-03-01T09:21:08;1.50;99.90
6377;DHT22;3221;48.858;10.128;2023-03-01T09:23:46;1.70;99.90
6377;DHT22;3221;48.858;10.128;2023-03-01T09:26:19;1.80;99.90
6377;DHT22;3221;48.858;10.128;2023-03-01T09:28:49;1.70;99.90
6377;DHT22;3221;48.858;10.128;2023-03-01T09:31:19;1.80;99.90
6377;DHT22;3221;48.858;10.128;2023-03-01T09:33:47;2.00;99.90
6377;DHT22;3221;48.858;10.128;2023-03-01T09:36:18;1.90;99.90
6377;DHT22;3221;48.858;10.128;2023-03-01T09:38:45;2.00;99.90
6377;DHT22;3221;48.858;10.128;2023-03-01T09:42:12;2.10;99.90
6377;DHT22;3221;48.858;10.128;2023-03-01T09:44:27;2.10;99.90
6377;DHT22;3221;48.858;10.128;2023-03-01T09:46:55;2.20;99.90
6377;DHT22;3221;48.858;10.128;2023-03-01T09:49:39;2.60;99.90
6377;DHT22;3221;48.858;10.128;2023-03-01T09:55:54;2.60;99.90
6377;DHT22;3221;48.858;10.128;2023-03-01T10:00:49;2.80;99.90
6377;DHT22;3221;48.858;10.128;2023-03-01T10:03:33;2.80;99.90
6377;DHT22;3221;48.858;10.128;2023-03-01T10:06:15;3.00;99.90
6377;DHT22;3221;48.858;10.128;2023-03-01T10:09:16;3.00;99.90
6377;DHT22;3221;48.858;10.128;2023-03-01T10:11:51;3.00;99.90
6377;DHT22;3221;48.858;10.128;2023-03-01T10:14:45;3.20;99.90
6377;DHT22;3221;48.858;10.128;2023-03-01T10:22:40;3.20;99.90
6377;DHT22;3221;48.858;10.128;2023-03-01T10:25:13;3.20;99.90
6377;DHT22;3221;48.858;10.128;2023-03-01T10:30:37;3.50;99.90
6377;DHT22;3221;48.858;10.128;2023-03-01T10:33:16;3.60;99.90
6377;DHT22;3221;48.858;10.128;2023-03-01T10:35:44;3.60;99.90
6377;DHT22;3221;48.858;10.128;2023-03-01T10:38:12;3.80;99.90
6377;DHT22;3221;48.858;10.128;2023-03-01T10:40:56;3.80;99.90
6377;DHT22;3221;48.858;10.128;2023-03-01T10:43:25;3.50;99.90
6377;DHT22;3221;48.858;10.128;2023-03-01T10:45:53;3.40;99.90
6377;DHT22;3221;48.858;10.128;2023-03-01T10:48:23;3.20;99.90
6377;DHT22;3221;48.858;10.128;2023-03-01T10:53:43;3.40;99.90
6377;DHT22;3221;48.858;10.128;2023-03-01T10:56:15;3.60;99.90
6377;DHT22;3221;48.858;10.128;2023-03-01T10:59:09;3.80;99.90
6377;DHT22;3221;48.858;10.128;2023-03-01T11:01:45;3.80;99.90
6377;DHT22;3221;48.858;10.128;2023-03-01T11:04:13;4.00;99.90
6377;DHT22;3221;48.858;10.128;2023-03-01T11:06:41;4.10;99.90
6377;DHT22;3221;48.858;10.128;2023-03-01T11:09:20;4.20;99.90
6377;DHT22;3221;48.858;10.128;2023-03-01T11:11:58;4.20;99.90
6377;DHT22;3221;48.858;10.128;2023-03-01T11:14:37;4.10;99.90
6377;DHT22;3221;48.858;10.128;2023-03-01T11:17:28;4.00;99.90
6377;DHT22;3221;48.858;10.128;2023-03-01T11:23:03;4.40;99.90
6377;DHT22;3221;48.858;10.128;2023-03-01T11:25:35;4.50;99.90
6377;DHT22;3221;48.858;10.128;2023-03-01T11:28:06;4.30;99.90
6377;DHT22;3221;48.858;10.128;2023-03-01T11:30:38;4.10;99.90
6377;DHT22;3221;48.858;10.128;2023-03-01T11:39:17;4.10;99.90
6377;DHT22;3221;48.858;10.128;2023-03-01T11:41:50;4.30;99.90
6377;DHT22;3221;48.858;10.128;2023-03-01T11:44:28;4.20;99.90
6377;DHT22;3221;48.858;10.128;2023-03-01T11:47:18;4.30;99.90
6377;DHT22;3221;48.858;10.128;2023-03-01T11:50:00;4.30;99.90
6377;DHT22;3221;48.858;10.128;2023-03-01T12:06:32;4.60;99.90
6377;DHT22;3221;48.858;10.128;2023-03-01T12:17:31;4.10;99.90
6377;DHT22;3221;48.858;10.128;2023-03-01T12:23:02;4.50;99.90
6377;DHT22;3221;48.858;10.128;2023-03-01T12:26:24;4.50;99.90
6377;DHT22;3221;48.858;10.128;2023-03-01T12:29:07;4.60;99.90
6377;DHT22;3221;48.858;10.128;2023-03-01T12:43:10;4.90;99.90
6377;DHT22;3221;48.858;10.128;2023-03-01T12:46:10;4.90;99.90
6377;DHT22;3221;48.858;10.128;2023-03-01T12:48:59;4.70;99.90
6377;DHT22;3221;48.858;10.128;2023-03-01T12:51:31;4.90;99.90
6377;DHT22;3221;48.858;10.128;2023-03-01T12:54:05;5.00;99.90
6377;DHT22;3221;48.858;10.128;2023-03-01T12:56:36;5.00;99.90
6377;DHT22;3221;48.858;10.128;2023-03-01T13:01:49;5.20;99.90
6377;DHT22;3221;48.858;10.128;2023-03-01T13:10:34;5.00;99.90
6377;DHT22;3221;48.858;10.128;2023-03-01T13:13:23;5.10;99.90
6377;DHT22;3221;48.858;10.128;2023-03-01T13:15:51;5.20;99.90
6377;DHT22;3221;48.858;10.128;2023-03-01T13:20:55;5.60;99.90
6377;DHT22;3221;48.858;10.128;2023-03-01T13:23:26;5.80;99.90
6377;DHT22;3221;48.858;10.128;2023-03-01T13:33:52;5.90;99.90
6377;DHT22;3221;48.858;10.128;2023-03-01T13:38:58;5.90;99.90
6377;DHT22;3221;48.858;10.128;2023-03-01T13:44:33;5.90;99.90
6377;DHT22;3221;48.858;10.128;2023-03-01T13:52:48;6.10;99.90
6377;DHT22;3221;48.858;10.128;2023-03-01T13:57:54;6.20;99.90
6377;DHT22;3221;48.858;10.128;2023-03-01T14:00:34;6.20;99.90
6377;DHT22;3221;48.858;10.128;2023-03-01T14:03:16;6.10;99.90
6377;DHT22;3221;48.858;10.128;2023-03-01T14:08:40;6.30;99.90
6377;DHT22;3221;48.858;10.128;2023-03-01T14:19:26;6.60;99.90
6377;DHT22;3221;48.858;10.128;2023-03-01T14:24:52;6.70;99.90
6377;DHT22;3221;48.858;10.128;2023-03-01T14:27:21;6.70;99.90
6377;DHT22;3221;48.858;10.128;2023-03-01T14:30:01;6.70;99.90
6377;DHT22;3221;48.858;10.128;2023-03-01T14:32:31;6.60;99.90
6377;DHT22;3221;48.858;10.128;2023-03-01T14:35:00;6.60;99.90
6377;DHT22;3221;48.858;10.128;2023-03-01T14:39:56;6.70;99.90
6377;DHT22;3221;48.858;10.128;2023-03-01T14:42:34;6.70;99.90
6377;DHT22;3221;48.858;10.128;2023-03-01T14:45:02;6.50;99.90
6377;DHT22;3221;48.858;10.128;2023-03-01T14:47:32;6.50;99.90
6377;DHT22;3221;48.858;10.128;2023-03-01T14:50:15;6.60;99.90
6377;DHT22;3221;48.858;10.128;2023-03-01T14:52:47;6.60;99.30
6377;DHT22;3221;48.858;10.128;2023-03-01T14:55:26;6.50;99.90
6377;DHT22;3221;48.858;10.128;2023-03-01T14:57:53;6.70;99.10
6377;DHT22;3221;48.858;10.128;2023-03-01T15:00:23;6.70;99.50
6377;DHT22;3221;48.858;10.128;2023-03-01T15:02:52;7.00;99.90
6377;DHT22;3221;48.858;10.128;2023-03-01T15:05:31;7.20;99.50
6377;DHT22;3221;48.858;10.128;2023-03-01T15:08:00;7.00;98.80
6377;DHT22;3221;48.858;10.128;2023-03-01T15:10:34;7.30;99.40
6377;DHT22;3221;48.858;10.128;2023-03-01T15:13:22;7.30;99.60
6377;DHT22;3221;48.858;10.128;2023-03-01T15:15:51;7.30;98.50
6377;DHT22;3221;48.858;10.128;2023-03-01T15:18:28;7.30;99.30
6377;DHT22;3221;48.858;10.128;2023-03-01T15:20:56;7.20;98.30
6377;DHT22;3221;48.858;10.128;2023-03-01T15:23:31;7.20;98.10
6377;DHT22;3221;48.858;10.128;2023-03-01T15:25:58;7.20;98.90
6377;DHT22;3221;48.858;10.128;2023-03-01T15:29:00;7.20;97.80
6377;DHT22;3221;48.858;10.128;2023-03-01T15:31:31;7.00;97.10
6377;DHT22;3221;48.858;10.128;2023-03-01T15:36:49;7.20;98.30
6377;DHT22;3221;48.858;10.128;2023-03-01T15:41:56;6.80;97.70
6377;DHT22;3221;48.858;10.128;2023-03-01T15:44:32;6.80;98.60
6377;DHT22;3221;48.858;10.128;2023-03-01T15:47:26;6.90;98.70
6377;DHT22;3221;48.858;10.128;2023-03-01T15:49:54;6.80;98.20
6377;DHT22;3221;48.858;10.128;2023-03-01T15:52:28;6.40;97.00
6377;DHT22;3221;48.858;10.128;2023-03-01T15:55:01;6.30;98.20
6377;DHT22;3221;48.858;10.128;2023-03-01T15:57:28;6.20;98.20
6377;DHT22;3221;48.858;10.128;2023-03-01T15:59:55;6.20;97.00
6377;DHT22;3221;48.858;10.128;2023-03-01T16:02:23;6.30;98.00
6377;DHT22;3221;48.858;10.128;2023-03-01T16:04:50;6.20;98.90
6377;DHT22;3221;48.858;10.128;2023-03-01T16:07:17;6.20;98.90
6377;DHT22;3221;48.858;10.128;2023-03-01T16:09:44;6.10;99.10
6377;DHT22;3221;48.858;10.128;2023-03-01T16:12:15;6.10;98.80
6377;DHT22;3221;48.858;10.128;2023-03-01T16:14:43;6.10;99.20
6377;DHT22;3221;48.858;10.128;2023-03-01T16:17:10;5.90;99.00
6377;DHT22;3221;48.858;10.128;2023-03-01T16:19:37;5.80;99.30
6377;DHT22;3221;48.858;10.128;2023-03-01T16:22:05;5.70;98.20
6377;DHT22;3221;48.858;10.128;2023-03-01T16:24:32;5.70;99.40
6377;DHT22;3221;48.858;10.128;2023-03-01T16:26:58;5.60;99.60
6377;DHT22;3221;48.858;10.128;2023-03-01T16:29:25;5.60;99.50
6377;DHT22;3221;48.858;10.128;2023-03-01T16:31:53;5.40;98.80
6377;DHT22;3221;48.858;10.128;2023-03-01T16:34:20;5.40;99.10
6377;DHT22;3221;48.858;10.128;2023-03-01T16:36:48;5.30;98.60
6377;DHT22;3221;48.858;10.128;2023-03-01T16:39:15;5.20;99.90
6377;DHT22;3221;48.858;10.128;2023-03-01T16:41:43;5.30;99.90
6377;DHT22;3221;48.858;10.128;2023-03-01T16:44:10;5.30;99.80
6377;DHT22;3221;48.858;10.128;2023-03-01T16:46:36;5.30;99.80
6377;DHT22;3221;48.858;10.128;2023-03-01T16:49:03;5.20;99.90
6377;DHT22;3221;48.858;10.128;2023-03-01T16:51:30;5.20;99.90
6377;DHT22;3221;48.858;10.128;2023-03-01T16:53:59;5.10;99.90
6377;DHT22;3221;48.858;10.128;2023-03-01T16:56:26;5.00;99.90
6377;DHT22;3221;48.858;10.128;2023-03-01T16:58:53;5.00;99.90
6377;DHT22;3221;48.858;10.128;2023-03-01T17:01:20;5.00;99.90
6377;DHT22;3221;48.858;10.128;2023-03-01T17:03:51;4.90;99.90
6377;DHT22;3221;48.858;10.128;2023-03-01T17:06:20;4.70;99.90
6377;DHT22;3221;48.858;10.128;2023-03-01T17:08:48;4.70;99.90
6377;DHT22;3221;48.858;10.128;2023-03-01T17:11:17;4.80;99.90
6377;DHT22;3221;48.858;10.128;2023-03-01T17:13:45;4.50;99.90
6377;DHT22;3221;48.858;10.128;2023-03-01T17:16:15;4.40;99.90
6377;DHT22;3221;48.858;10.128;2023-03-01T17:18:43;4.50;99.90
6377;DHT22;3221;48.858;10.128;2023-03-01T17:21:10;4.40;99.90
6377;DHT22;3221;48.858;10.128;2023-03-01T17:23:41;4.30;99.90
6377;DHT22;3221;48.858;10.128;2023-03-01T17:26:09;4.40;99.90
6377;DHT22;3221;48.858;10.128;2023-03-01T17:28:36;4.30;99.90
6377;DHT22;3221;48.858;10.128;2023-03-01T17:31:05;4.30;99.90
6377;DHT22;3221;48.858;10.128;2023-03-01T17:33:33;4.20;99.90
6377;DHT22;3221;48.858;10.128;2023-03-01T17:35:59;4.20;99.90
6377;DHT22;3221;48.858;10.128;2023-03-01T17:38:27;4.10;99.90
6377;DHT22;3221;48.858;10.128;2023-03-01T17:40:53;4.10;99.90
6377;DHT22;3221;48.858;10.128;2023-03-01T17:43:20;4.10;99.90
6377;DHT22;3221;48.858;10.128;2023-03-01T17:45:47;4.00;99.90
6377;DHT22;3221;48.858;10.128;2023-03-01T17:48:16;4.00;99.90
6377;DHT22;3221;48.858;10.128;2023-03-01T17:50:43;4.00;99.90
6377;DHT22;3221;48.858;10.128;2023-03-01T17:53:11;4.10;99.90
6377;DHT22;3221;48.858;10.128;2023-03-01T17:55:40;4.10;99.90
6377;DHT22;3221;48.858;10.128;2023-03-01T17:58:08;4.10;99.90
6377;DHT22;3221;48.858;10.128;2023-03-01T18:00:35;3.90;99.90
6377;DHT22;3221;48.858;10.128;2023-03-01T18:03:03;3.80;99.90
6377;DHT22;3221;48.858;10.128;2023-03-01T18:05:34;3.80;99.90
6377;DHT22;3221;48.858;10.128;2023-03-01T18:08:01;3.90;99.90
6377;DHT22;3221;48.858;10.128;2023-03-01T18:10:29;3.90;99.90
6377;DHT22;3221;48.858;10.128;2023-03-01T18:12:56;3.90;99.90
6377;DHT22;3221;48.858;10.128;2023-03-01T18:15:23;3.90;99.90
6377;DHT22;3221;48.858;10.128;2023-03-01T18:17:50;3.70;99.90
6377;DHT22;3221;48.858;10.128;2023-03-01T18:20:17;3.70;99.90
6377;DHT22;3221;48.858;10.128;2023-03-01T18:22:44;3.80;99.90
6377;DHT22;3221;48.858;10.128;2023-03-01T18:25:12;3.80;99.90
6377;DHT22;3221;48.858;10.128;2023-03-01T18:27:38;3.70;99.90
6377;DHT22;3221;48.858;10.128;2023-03-01T18:30:07;3.70;99.90
6377;DHT22;3221;48.858;10.128;2023-03-01T18:32:34;3.70;99.90
6377;DHT22;3221;48.858;10.128;2023-03-01T18:35:01;3.60;99.90